Time;durP1;ratioP1;P1;durP2;ratioP2;P2;SDS_P1;SDS_P2;PMS_P1;PMS_P2;Temp;Humidity;BMP_temperature;BMP_pressure;BME280_temperature;BME280_humidity;BME280_pressure;Samples;Min_cycle;Max_cycle;Signal;HPM_P1;HPM_P2
2022/05/12 00:01:54;;;;;;;3.97;2.67;;;;;;;23.05;50.90;100945.47;5080337;28;20357;-49
2022/05/12 00:04:21;;;;;;;3.78;2.38;;;;;;;23.05;51.24;100950.78;5063725;28;20036;-49
2022/05/12 00:06:46;;;;;;;4.22;2.60;;;;;;;23.05;51.00;100947.31;5083011;28;20069;-46
2022/05/12 00:09:12;;;;;;;2.95;2.63;;;;;;;23.05;51.32;100947.31;5082720;28;20028;-50
2022/05/12 00:11:38;;;;;;;5.78;2.80;;;;;;;23.04;50.87;100948.34;5084159;28;20483;-49
2022/05/12 00:14:03;;;;;;;6.35;2.65;;;;;;;23.03;51.11;100950.19;5078399;28;20685;-49
2022/05/12 00:16:29;;;;;;;7.20;2.88;;;;;;;23.02;51.45;100950.41;5082925;28;20042;-53
2022/05/12 00:18:56;;;;;;;4.38;2.50;;;;;;;23.03;51.37;100947.53;5082719;28;20103;-46
2022/05/12 00:21:21;;;;;;;5.22;2.50;;;;;;;23.03;51.20;100941.41;5084548;28;20040;-51
2022/05/12 00:23:56;;;;;;;3.15;2.53;;;;;;;23.02;51.18;100937.94;5081069;28;20052;-47
2022/05/12 00:26:34;;;;;;;3.08;2.20;;;;;;;23.00;51.49;100942.63;5084014;28;20067;-46
2022/05/12 00:29:02;;;;;;;3.05;2.72;;;;;;;23.01;51.48;100936.31;5058551;28;20149;-52
2022/05/12 00:31:29;;;;;;;4.55;2.70;;;;;;;23.03;51.56;100938.75;5083658;28;20039;-47
2022/05/12 00:33:55;;;;;;;5.00;2.70;;;;;;;23.02;51.64;100940.59;5078681;28;20032;-46
2022/05/12 00:36:20;;;;;;;3.55;2.33;;;;;;;23.02;51.28;100937.94;5078488;28;20035;-46
2022/05/12 00:38:46;;;;;;;4.60;2.63;;;;;;;23.02;51.18;100935.28;5082290;28;20032;-46
2022/05/12 00:41:11;;;;;;;4.13;3.28;;;;;;;23.02;51.18;100937.13;5082297;28;20032;-47
2022/05/12 00:43:42;;;;;;;4.03;2.90;;;;;;;23.01;51.24;100940.81;5080711;28;20027;-46
2022/05/12 00:46:12;;;;;;;3.65;2.38;;;;;;;23.00;51.53;100933.84;5083331;28;20063;-46
2022/05/12 00:48:38;;;;;;;5.43;3.22;;;;;;;23.00;51.50;100939.97;5074443;28;20024;-46
2022/05/12 00:51:05;;;;;;;5.40;3.17;;;;;;;23.00;51.43;100933.84;5076366;28;20028;-50
2022/05/12 00:53:33;;;;;;;6.53;2.97;;;;;;;23.00;51.63;100925.88;5065376;28;20036;-52
2022/05/12 00:55:59;;;;;;;3.45;2.72;;;;;;;22.99;51.61;100926.91;5083539;28;20017;-47
2022/05/12 00:58:26;;;;;;;4.25;2.33;;;;;;;23.00;51.08;100936.50;5082073;28;20036;-47
2022/05/12 01:00:52;;;;;;;5.80;2.70;;;;;;;23.00;51.17;100934.66;5080681;28;20035;-46
2022/05/12 01:03:21;;;;;;;4.40;3.05;;;;;;;23.01;51.25;100927.50;5081670;28;20075;-46
2022/05/12 01:05:48;;;;;;;4.35;2.55;;;;;;;23.01;51.29;100922.19;5083812;28;20065;-46
2022/05/12 01:08:16;;;;;;;5.03;3.00;;;;;;;23.02;51.29;100918.50;5085982;28;20036;-46
2022/05/12 01:10:45;;;;;;;4.32;2.65;;;;;;;23.01;50.98;100923.00;5089205;28;20051;-46
2022/05/12 01:13:11;;;;;;;3.90;2.28;;;;;;;23.01;51.04;100919.53;5080528;28;20083;-46
2022/05/12 01:15:36;;;;;;;3.20;2.40;;;;;;;23.00;50.66;100923.22;5083727;28;20067;-47
2022/05/12 01:18:10;;;;;;;4.55;2.80;;;;;;;23.01;50.66;100922.19;5086632;28;20028;-46
2022/05/12 01:20:38;;;;;;;5.63;2.63;;;;;;;23.01;50.89;100923.00;5084747;28;20451;-46
2022/05/12 01:23:26;;;;;;;3.65;2.75;;;;;;;23.02;50.41;100932.63;5085107;28;20427;-47
2022/05/12 01:26:04;;;;;;;3.45;2.47;;;;;;;22.98;50.91;100928.75;5072259;28;20126;-46
2022/05/12 01:28:30;;;;;;;3.08;1.95;;;;;;;22.99;50.57;100924.25;5086339;28;20491;-47
2022/05/12 01:30:57;;;;;;;3.33;2.40;;;;;;;23.00;50.30;100923.22;5086688;28;20399;-46
2022/05/12 01:33:23;;;;;;;5.00;2.72;;;;;;;23.00;50.80;100921.38;5085545;28;20028;-48
2022/05/12 01:35:49;;;;;;;4.78;2.50;;;;;;;23.01;50.30;100922.19;5077815;28;20024;-46
2022/05/12 01:38:15;;;;;;;2.55;2.28;;;;;;;23.00;50.34;100923.22;5086220;28;20032;-46
2022/05/12 01:40:43;;;;;;;3.47;2.63;;;;;;;23.01;50.60;100924.84;5068560;28;20056;-46
2022/05/12 01:43:09;;;;;;;3.92;2.75;;;;;;;23.00;50.32;100921.38;5085201;28;20059;-50
2022/05/12 01:45:35;;;;;;;3.67;2.25;;;;;;;23.00;50.14;100917.91;5080895;28;20046;-46
2022/05/12 01:48:01;;;;;;;4.82;2.95;;;;;;;22.99;50.42;100929.56;5087797;28;20433;-49
2022/05/12 01:50:26;;;;;;;4.70;2.80;;;;;;;22.98;50.25;100923.44;5080248;28;20028;-47
2022/05/12 01:52:51;;;;;;;9.02;2.40;;;;;;;22.98;50.45;100926.09;5068129;28;20101;-46
2022/05/12 01:55:20;;;;;;;8.23;3.42;;;;;;;22.97;50.33;100928.97;5081711;28;20031;-46
2022/05/12 01:57:46;;;;;;;4.25;2.65;;;;;;;22.98;49.93;100930.59;5087810;28;20441;-47
2022/05/12 02:00:15;;;;;;;3.17;2.67;;;;;;;22.97;50.42;100931.63;5085797;28;20028;-46
2022/05/12 02:02:41;;;;;;;7.88;3.10;;;;;;;22.97;50.07;100931.63;5086870;28;20032;-46
2022/05/12 02:05:10;;;;;;;6.82;3.08;;;;;;;22.95;50.18;100923.88;5081579;28;20471;-46
2022/05/12 02:07:41;;;;;;;4.40;3.00;;;;;;;22.94;50.25;100924.09;5088078;28;20506;-46
2022/05/12 02:12:33;;;;;;;4.65;2.88;;;;;;;22.94;50.17;100930.22;5389652;22;20048;-46
2022/05/12 02:14:59;;;;;;;5.45;2.70;;;;;;;22.93;50.32;100922.44;5088764;28;20031;-48
2022/05/12 02:17:24;;;;;;;4.82;2.75;;;;;;;22.91;50.23;100929.81;5087315;28;20039;-48
2022/05/12 02:19:49;;;;;;;6.05;3.60;;;;;;;22.91;50.05;100927.16;5088441;28;20122;-47
2022/05/12 02:22:17;;;;;;;4.10;2.80;;;;;;;22.91;49.98;100927.97;5088239;28;20359;-48
2022/05/12 02:24:43;;;;;;;3.17;2.75;;;;;;;22.90;50.36;100922.88;5088636;28;20031;-46
2022/05/12 02:27:08;;;;;;;4.15;2.78;;;;;;;22.90;50.44;100926.34;5088078;28;20024;-46
2022/05/12 02:29:34;;;;;;;3.70;2.70;;;;;;;22.90;50.15;100925.53;5089068;28;20641;-46
2022/05/12 02:31:59;;;;;;;5.47;2.90;;;;;;;22.89;49.93;100932.69;5088531;28;20020;-48
2022/05/12 02:34:24;;;;;;;6.43;3.38;;;;;;;22.90;50.35;100929.00;5088541;28;20032;-49
2022/05/12 02:37:11;;;;;;;4.65;2.72;;;;;;;22.91;50.18;100921.84;5088290;28;20354;-46
2022/05/12 02:39:36;;;;;;;;;;;;;;;22.83;50.30;100926.38;5088424;28;20043;-48
2022/05/12 02:42:04;;;;;;;2.83;2.55;;;;;;;22.87;49.94;100918.81;5088706;28;20002;-48
2022/05/12 02:44:30;;;;;;;4.13;2.83;;;;;;;22.91;50.06;100925.31;5088460;28;20480;-47
2022/05/12 02:46:56;;;;;;;3.78;2.58;;;;;;;22.93;49.83;100923.25;5088178;28;20134;-48
2022/05/12 02:49:21;;;;;;;5.25;3.00;;;;;;;22.96;50.06;100925.50;5088332;28;20086;-46
2022/05/12 02:51:47;;;;;;;3.78;2.28;;;;;;;22.98;49.76;100933.25;5088518;28;20032;-49
2022/05/12 02:54:14;;;;;;;4.20;2.70;;;;;;;22.99;49.77;100926.91;5087755;28;20066;-48
2022/05/12 02:56:40;;;;;;;3.65;2.28;;;;;;;22.98;49.93;100925.28;5088010;28;20088;-47
2022/05/12 02:59:06;;;;;;;4.75;2.70;;;;;;;22.98;49.94;100925.28;5088291;28;20148;-47
2022/05/12 03:01:32;;;;;;;4.05;3.13;;;;;;;22.97;49.95;100923.66;5087939;28;20024;-48
2022/05/12 03:03:58;;;;;;;4.03;3.03;;;;;;;22.96;49.83;100925.50;5087903;28;20445;-47
2022/05/12 03:06:24;;;;;;;5.72;3.20;;;;;;;22.94;49.94;100922.25;5087675;28;20049;-50
2022/05/12 03:08:49;;;;;;;5.65;2.42;;;;;;;22.95;50.18;100926.53;5087983;28;20019;-47
2022/05/12 03:11:15;;;;;;;3.47;2.83;;;;;;;22.93;50.02;100919.78;5088078;28;20468;-46
2022/05/12 03:13:40;;;;;;;4.38;2.70;;;;;;;22.93;49.98;100922.44;5087527;28;20415;-47
2022/05/12 03:16:06;;;;;;;4.50;2.60;;;;;;;22.92;49.99;100928.78;5087662;28;20024;-47
2022/05/12 03:18:31;;;;;;;4.85;2.80;;;;;;;22.90;50.05;100926.34;5088061;28;20143;-48
2022/05/12 03:20:57;;;;;;;5.88;3.38;;;;;;;22.89;49.82;100922.06;5087642;28;20085;-46
2022/05/12 03:23:23;;;;;;;3.30;3.00;;;;;;;22.90;49.71;100928.19;5087408;28;20031;-47
2022/05/12 03:25:53;;;;;;;3.50;3.17;;;;;;;22.89;49.93;100923.91;5087295;28;20622;-47
2022/05/12 03:28:18;;;;;;;4.53;2.70;;;;;;;22.90;50.08;100928.19;5087297;28;20077;-46
2022/05/12 03:30:44;;;;;;;3.55;3.05;;;;;;;22.89;49.61;100923.91;5087576;28;20036;-49
2022/05/12 03:33:10;;;;;;;3.38;2.88;;;;;;;22.87;49.48;100934.75;5087658;28;20024;-47
2022/05/12 03:35:37;;;;;;;3.50;2.78;;;;;;;22.87;49.77;100928.63;5087481;28;20020;-51
2022/05/12 03:38:04;;;;;;;3.97;2.75;;;;;;;22.87;49.65;100929.44;5087099;28;20028;-48
2022/05/12 03:40:30;;;;;;;4.15;3.08;;;;;;;22.87;49.79;100936.59;5087337;28;20055;-48
2022/05/12 03:42:59;;;;;;;4.32;2.70;;;;;;;22.87;49.47;100932.09;5087347;28;20137;-46
2022/05/12 03:45:29;;;;;;;2.90;2.70;;;;;;;22.87;49.79;100929.44;5069357;28;20302;-45
2022/05/12 03:47:56;;;;;;;4.05;2.60;;;;;;;22.87;49.75;100933.94;5087085;28;20478;-47
2022/05/12 03:50:24;;;;;;;4.70;3.03;;;;;;;22.88;49.49;100930.25;5086879;28;20237;-49
2022/05/12 03:52:52;;;;;;;4.88;3.03;;;;;;;22.87;49.63;100924.13;5087005;28;20046;-46
2022/05/12 03:55:21;;;;;;;3.17;2.30;;;;;;;22.87;49.72;100923.31;5086874;28;20062;-47
2022/05/12 03:57:48;;;;;;;5.95;3.22;;;;;;;22.87;49.88;100920.66;5087113;28;20510;-46
2022/05/12 04:00:18;;;;;;;3.67;3.17;;;;;;;22.87;49.42;100928.63;5087389;28;20414;-48
2022/05/12 04:02:44;;;;;;;9.18;3.00;;;;;;;22.86;49.88;100933.13;5086750;28;20028;-49
2022/05/12 04:05:10;;;;;;;5.80;3.50;;;;;;;22.85;49.74;100936.81;5087164;28;20087;-45
2022/05/12 04:07:41;;;;;;;7.40;3.05;;;;;;;22.84;49.96;100935.16;5087199;28;20028;-45
2022/05/12 04:10:07;;;;;;;7.40;3.20;;;;;;;22.84;50.07;100936.00;5086944;28;20031;-47
2022/05/12 04:12:33;;;;;;;6.55;3.58;;;;;;;22.86;49.75;100940.28;5086624;28;20098;-46
2022/05/12 04:14:59;;;;;;;11.13;3.67;;;;;;;22.87;49.88;100940.06;5086929;28;20439;-48
2022/05/12 04:17:25;;;;;;;6.75;3.58;;;;;;;22.87;49.77;100940.06;5086716;28;20035;-49
2022/05/12 04:19:52;;;;;;;11.10;3.53;;;;;;;22.88;49.75;100938.22;5086742;28;20148;-50
2022/05/12 04:22:18;;;;;;;16.98;4.68;;;;;;;22.87;50.65;100942.72;5086756;28;20065;-53
2022/05/12 04:24:44;;;;;;;7.18;4.30;;;;;;;22.96;51.09;100948.59;5086666;28;20020;-50
2022/05/12 04:27:10;;;;;;;11.68;7.70;;;;;;;23.00;52.90;100939.97;5087050;28;20040;-50
2022/05/12 04:29:37;;;;;;;15.43;4.70;;;;;;;23.02;52.65;100935.28;5086475;28;20348;-49
2022/05/12 04:32:03;;;;;;;15.88;4.00;;;;;;;23.00;52.13;100939.97;5067914;28;20479;-50
2022/05/12 04:37:12;;;;;;;9.02;3.80;;;;;;;22.98;51.67;100934.06;5086862;28;20542;-46
2022/05/12 04:39:38;;;;;;;8.90;3.35;;;;;;;22.97;51.51;100932.44;5086053;28;20031;-47
2022/05/12 04:42:04;;;;;;;6.38;3.10;;;;;;;22.97;51.60;100934.28;5086451;28;20398;-46
2022/05/12 04:44:30;;;;;;;9.68;3.20;;;;;;;22.97;51.50;100939.59;5064722;28;20302;-51
2022/05/12 04:46:55;;;;;;;11.63;3.63;;;;;;;22.96;51.28;100930.00;5064705;28;20047;-48
2022/05/12 04:49:22;;;;;;;11.30;2.70;;;;;;;22.96;50.84;100936.13;5066253;28;20035;-46
2022/05/12 04:51:48;;;;;;;9.95;3.42;;;;;;;22.96;50.96;100932.66;5065903;28;20494;-47
2022/05/12 04:54:14;;;;;;;6.88;3.08;;;;;;;22.96;51.00;100938.78;5065816;28;20507;-44
2022/05/12 04:56:41;;;;;;;7.32;3.03;;;;;;;22.96;50.46;100932.66;5066046;28;20032;-46
2022/05/12 04:59:08;;;;;;;8.50;2.28;;;;;;;22.97;50.45;100928.97;5066029;28;20046;-49
2022/05/12 05:01:35;;;;;;;8.52;3.00;;;;;;;22.96;50.71;100936.13;5065945;28;20029;-46
2022/05/12 05:04:00;;;;;;;11.73;3.13;;;;;;;22.97;50.45;100944.91;5066024;28;20060;-48
2022/05/12 05:06:27;;;;;;;5.45;2.95;;;;;;;22.98;50.43;100930.59;5066053;28;20428;-50
2022/05/12 05:08:53;;;;;;;6.47;2.13;;;;;;;22.97;50.53;100943.06;5065933;28;20032;-50
2022/05/12 05:11:18;;;;;;;8.73;3.55;;;;;;;22.98;50.22;100946.53;5066113;28;20559;-48
2022/05/12 05:13:44;;;;;;;4.60;2.83;;;;;;;22.98;50.37;100951.84;5065708;28;20052;-48
2022/05/12 05:16:10;;;;;;;6.55;3.28;;;;;;;22.97;50.58;100952.88;5065832;28;20077;-50
2022/05/12 05:18:37;;;;;;;6.43;2.55;;;;;;;22.97;50.39;100961.66;5065613;28;20031;-51
2022/05/12 05:21:03;;;;;;;6.22;3.03;;;;;;;22.96;50.45;100960.03;5065688;28;20340;-49
2022/05/12 05:23:28;;;;;;;4.60;2.72;;;;;;;22.96;50.42;100959.22;5065783;28;20028;-49
2022/05/12 05:25:54;;;;;;;6.05;3.03;;;;;;;22.94;50.39;100961.28;5065641;28;20119;-50
2022/05/12 05:28:20;;;;;;;5.88;2.30;;;;;;;22.95;50.45;100963.72;5066168;28;20467;-45
2022/05/12 05:30:46;;;;;;;5.38;2.75;;;;;;;22.96;50.46;100969.84;5065631;28;20066;-44
2022/05/12 05:33:11;;;;;;;7.75;3.33;;;;;;;22.94;50.17;100971.91;5065770;28;20111;-49
2022/05/12 05:35:37;;;;;;;3.72;2.72;;;;;;;22.95;50.45;100977.00;5065799;28;20025;-46
2022/05/12 05:38:03;;;;;;;7.18;3.28;;;;;;;22.95;50.60;100977.00;5065776;28;20040;-50
2022/05/12 05:40:29;;;;;;;4.97;2.72;;;;;;;22.94;50.48;100966.59;5065943;28;20024;-47
2022/05/12 05:42:55;;;;;;;6.13;2.40;;;;;;;22.93;50.32;100976.41;5065962;28;20435;-51
2022/05/12 05:45:22;;;;;;;4.85;2.95;;;;;;;22.94;50.33;100975.38;5065742;28;20128;-49
2022/05/12 05:47:54;;;;;;;3.90;2.70;;;;;;;22.94;50.41;100979.88;5065441;28;20033;-52
2022/05/12 05:50:27;;;;;;;4.70;3.08;;;;;;;22.93;50.59;100981.72;5047839;28;20048;-48
2022/05/12 05:55:37;;;;;;;6.13;2.65;;;;;;;22.96;50.66;100983.13;5069812;28;20405;-50
2022/05/12 05:58:05;;;;;;;3.33;2.53;;;;;;;22.97;50.47;100990.09;5068796;28;20037;-45
2022/05/12 06:00:36;;;;;;;8.25;2.80;;;;;;;22.98;50.55;100991.72;5068855;28;20121;-51
2022/05/12 06:03:02;;;;;;;7.43;3.42;;;;;;;23.03;51.63;101000.69;5068681;28;20060;-49
2022/05/12 06:05:28;;;;;;;9.23;3.72;;;;;;;23.10;52.47;100995.31;5068669;28;20543;-51
2022/05/12 06:07:54;;;;;;;6.65;4.65;;;;;;;23.18;53.30;101003.03;5068425;28;20078;-51
2022/05/12 06:10:20;;;;;;;8.35;3.97;;;;;;;23.20;53.49;100995.66;5068704;28;20048;-41
2022/05/12 06:12:48;;;;;;;4.97;3.35;;;;;;;23.17;53.05;101004.03;5068331;28;20487;-44
2022/05/12 06:15:15;;;;;;;7.10;3.17;;;;;;;23.15;52.67;101006.13;5068426;28;20414;-47
2022/05/12 06:17:41;;;;;;;5.40;2.78;;;;;;;23.13;52.97;100997.56;5068534;28;20438;-42
2022/05/12 06:20:09;;;;;;;4.20;2.40;;;;;;;23.10;52.73;100995.31;5068552;28;20419;-40
2022/05/12 06:22:35;;;;;;;5.38;2.15;;;;;;;23.08;52.80;100989.41;5068446;28;20520;-41
2022/05/12 06:25:01;;;;;;;6.82;2.65;;;;;;;23.07;52.86;100983.28;5068263;28;20032;-43
2022/05/12 06:27:27;;;;;;;5.85;2.45;;;;;;;23.06;52.50;100972.88;5068682;28;20158;-42
2022/05/12 06:29:52;;;;;;;6.68;2.65;;;;;;;23.05;52.78;100990.66;5068347;28;20077;-46
2022/05/12 06:32:18;;;;;;;7.93;3.08;;;;;;;23.04;52.41;100988.22;5068862;28;20044;-43
2022/05/12 06:34:45;;;;;;;7.25;2.70;;;;;;;23.04;51.74;100996.19;5068442;28;20029;-46
2022/05/12 06:37:11;;;;;;;5.88;2.92;;;;;;;23.02;51.08;100995.56;5068429;28;20136;-51
2022/05/12 06:39:37;;;;;;;11.13;3.55;;;;;;;23.00;50.96;101001.09;5068135;28;20584;-46
2022/05/12 06:42:03;;;;;;;7.40;3.25;;;;;;;23.02;50.82;100995.56;5068157;28;20551;-42
2022/05/12 06:44:29;;;;;;;9.38;3.13;;;;;;;23.00;50.26;101000.28;5068385;28;20035;-47
2022/05/12 06:46:55;;;;;;;7.20;3.15;;;;;;;23.00;50.12;100992.31;5068259;28;20032;-52
2022/05/12 06:49:21;;;;;;;7.47;3.70;;;;;;;22.99;50.08;100998.66;5068064;28;20032;-50
2022/05/12 06:51:46;;;;;;;5.68;3.92;;;;;;;22.98;50.09;100994.38;5068106;28;20031;-55
2022/05/12 06:54:13;;;;;;;7.78;3.88;;;;;;;22.99;49.71;100990.69;5067608;28;20494;-43
2022/05/12 06:56:38;;;;;;;6.68;3.53;;;;;;;22.99;50.06;100998.66;5067713;28;20034;-44
2022/05/12 06:59:04;;;;;;;6.15;3.50;;;;;;;22.98;49.68;100991.72;5067765;28;20025;-46
2022/05/12 07:01:29;;;;;;;4.32;3.25;;;;;;;22.97;49.87;100998.06;5067561;28;20127;-49
2022/05/12 07:03:58;;;;;;;7.97;3.45;;;;;;;22.97;50.06;100998.06;5067303;28;20314;-45
2022/05/12 07:06:23;;;;;;;9.00;3.30;;;;;;;22.97;49.69;100998.06;5067982;28;20051;-47
2022/05/12 07:08:49;;;;;;;6.43;3.35;;;;;;;22.96;50.14;101001.75;5067488;28;20448;-50
2022/05/12 07:11:14;;;;;;;4.55;2.80;;;;;;;22.97;49.80;101000.72;5049561;28;20085;-47
2022/05/12 07:13:40;;;;;;;9.07;3.38;;;;;;;22.98;50.77;101005.81;5067271;28;20059;-43
2022/05/12 07:16:07;;;;;;;6.05;2.95;;;;;;;22.99;51.04;101004.78;5067372;28;20032;-45
2022/05/12 07:18:34;;;;;;;8.05;3.05;;;;;;;23.00;51.33;101003.75;5049268;28;20670;-40
2022/05/12 07:26:35;;;;;;;3.67;2.85;;;;;;;22.99;51.44;101003.97;5067551;28;20048;-46
2022/05/12 07:29:01;;;;;;;11.38;4.15;;;;;;;22.99;50.83;101002.13;5067197;28;20028;-50
2022/05/12 07:31:27;;;;;;;5.75;3.35;;;;;;;22.98;50.37;101007.66;5067347;28;20119;-57
2022/05/12 07:33:52;;;;;;;6.57;3.33;;;;;;;23.00;50.17;101011.72;5067509;28;20104;-45
2022/05/12 07:36:18;;;;;;;6.75;3.85;;;;;;;22.99;50.34;101002.13;5067340;28;20028;-43
2022/05/12 07:38:45;;;;;;;6.68;3.60;;;;;;;23.02;50.29;101011.53;5067524;28;20504;-48
2022/05/12 07:41:12;;;;;;;5.90;3.10;;;;;;;23.03;50.23;101021.94;5067319;28;20035;-51
2022/05/12 07:43:42;;;;;;;7.03;3.05;;;;;;;23.01;49.73;101016.03;5066862;28;20029;-52
2022/05/12 07:46:09;;;;;;;7.45;3.38;;;;;;;23.01;49.73;101009.88;5065068;28;20032;-53
2022/05/12 07:48:35;;;;;;;6.25;3.30;;;;;;;23.01;49.51;101016.03;5063181;28;20055;-52
2022/05/12 07:51:01;;;;;;;5.78;3.22;;;;;;;23.02;49.59;101014.19;5063270;28;20036;-53
2022/05/12 07:53:27;;;;;;;8.70;3.03;;;;;;;23.02;49.32;101017.66;5065409;28;20479;-50
2022/05/12 07:55:53;;;;;;;9.10;3.00;;;;;;;23.02;49.62;101011.53;5047630;28;20059;-52
2022/05/12 07:58:18;;;;;;;5.25;2.53;;;;;;;23.02;49.62;101014.19;5066801;28;20036;-45
2022/05/12 08:00:45;;;;;;;4.82;2.92;;;;;;;23.02;49.80;101020.31;5049640;28;20055;-48
2022/05/12 08:03:11;;;;;;;4.95;2.83;;;;;;;23.02;49.81;101022.16;5063514;28;20036;-48
2022/05/12 08:05:36;;;;;;;2.85;2.08;;;;;;;23.01;49.74;101026.66;5066751;28;20442;-49
2022/05/12 08:08:04;;;;;;;5.65;2.97;;;;;;;23.00;49.38;101019.69;5065488;28;20538;-49
2022/05/12 08:10:29;;;;;;;3.03;2.60;;;;;;;23.01;49.52;101023.19;5066228;28;20684;-51
2022/05/12 08:12:56;;;;;;;3.13;2.78;;;;;;;23.01;49.83;101025.84;5064709;28;20119;-51
2022/05/12 08:15:24;;;;;;;8.25;2.58;;;;;;;23.00;49.38;101019.69;5065499;28;20082;-53
2022/05/12 08:17:53;;;;;;;6.28;2.97;;;;;;;23.01;49.74;101020.53;5065323;28;20224;-53
2022/05/12 08:20:19;;;;;;;2.90;2.50;;;;;;;23.01;49.65;101024.00;5066529;28;20305;-53
2022/05/12 08:22:45;;;;;;;6.43;2.95;;;;;;;23.01;49.41;101023.19;5065358;28;20128;-49
2022/05/12 08:25:11;;;;;;;5.43;2.80;;;;;;;23.02;49.51;101024.81;5046385;28;20392;-50
2022/05/12 08:27:37;;;;;;;3.35;2.75;;;;;;;23.03;49.12;101023.78;5046293;28;20025;-51
2022/05/12 08:30:06;;;;;;;2.33;1.92;;;;;;;23.02;49.06;101028.28;5046216;28;20028;-51
2022/05/12 08:32:33;;;;;;;8.45;3.00;;;;;;;23.03;49.27;101029.91;5056514;28;20068;-55
2022/05/12 08:34:59;;;;;;;3.85;2.42;;;;;;;23.03;48.86;101021.13;5066430;28;20107;-56
2022/05/12 08:37:24;;;;;;;4.95;2.90;;;;;;;23.02;48.95;101017.66;5064771;28;20028;-51
2022/05/12 08:39:50;;;;;;;4.85;2.95;;;;;;;23.02;48.72;101022.16;5066734;28;20025;-53
2022/05/12 08:42:21;;;;;;;4.45;2.58;;;;;;;23.02;48.62;101027.47;5065110;28;20111;-52
2022/05/12 08:44:47;;;;;;;5.78;2.72;;;;;;;23.03;48.74;101029.09;5066266;28;20122;-49
2022/05/12 08:47:17;;;;;;;3.97;2.78;;;;;;;23.03;48.83;101021.13;5065196;28;20037;-55
2022/05/12 08:49:51;;;;;;;5.25;2.63;;;;;;;23.01;48.38;101024.00;5047987;28;20028;-51
2022/05/12 08:52:27;;;;;;;4.78;2.88;;;;;;;23.00;48.77;101027.69;5064317;28;20079;-52
2022/05/12 08:55:16;;;;;;;3.42;2.42;;;;;;;23.00;48.77;101029.50;5066269;28;20530;-52
2022/05/12 08:57:51;;;;;;;4.68;2.58;;;;;;;22.99;49.12;101039.31;5066046;28;20118;-50
2022/05/12 09:00:19;;;;;;;5.43;2.67;;;;;;;23.00;48.85;101040.16;5065949;28;20376;-49
2022/05/12 09:03:02;;;;;;;3.45;2.45;;;;;;;23.00;48.87;101042.81;5065004;28;20041;-49
2022/05/12 09:05:34;;;;;;;4.72;2.65;;;;;;;22.99;49.12;101043.81;5066199;28;20032;-49
2022/05/12 09:08:38;;;;;;;3.80;2.80;;;;;;;22.98;49.10;101047.50;5047928;28;20061;-51
2022/05/12 09:11:09;;;;;;;4.13;2.70;;;;;;;23.00;49.16;101040.16;5062654;28;20476;-49
2022/05/12 09:13:47;;;;;;;3.65;2.20;;;;;;;23.00;48.95;101040.16;5064423;28;20138;-56
2022/05/12 09:16:21;;;;;;;4.45;2.70;;;;;;;23.01;48.89;101052.41;5065821;28;20043;-53
2022/05/12 09:18:48;;;;;;;4.28;3.10;;;;;;;23.01;48.89;101050.56;5064983;28;20115;-54
2022/05/12 09:21:35;;;;;;;5.53;2.80;;;;;;;23.01;49.03;101049.75;5066210;28;20375;-50
2022/05/12 09:24:03;;;;;;;4.07;3.22;;;;;;;23.04;49.12;101049.31;5066050;28;20379;-53
2022/05/12 09:27:05;;;;;;;7.28;3.00;;;;;;;23.05;48.82;101045.66;5068517;28;20119;-46
2022/05/12 09:29:31;;;;;;;3.50;3.20;;;;;;;23.07;48.88;101051.56;5067531;28;20070;-52
2022/05/12 09:32:20;;;;;;;4.85;3.08;;;;;;;23.07;48.98;101047.06;5067708;28;20024;-52
2022/05/12 09:35:02;;;;;;;6.50;3.20;;;;;;;23.09;49.34;101049.50;5069065;28;20431;-49
2022/05/12 09:37:28;;;;;;;6.88;3.05;;;;;;;23.09;49.01;101045.00;5069744;28;20033;-49
2022/05/12 09:40:14;;;;;;;5.95;2.88;;;;;;;23.11;49.37;101055.44;5064881;28;20390;-50
2022/05/12 09:42:44;;;;;;;5.20;2.53;;;;;;;23.11;49.10;101052.78;5049293;28;20028;-49
2022/05/12 09:45:15;;;;;;;3.95;2.40;;;;;;;23.11;48.80;101047.44;5054522;28;20098;-52
2022/05/12 09:47:42;;;;;;;5.55;2.95;;;;;;;23.11;49.25;101042.13;5068208;28;20387;-51
2022/05/12 09:50:20;;;;;;;6.40;3.50;;;;;;;23.10;49.27;101043.16;5067000;28;20056;-53
2022/05/12 09:52:58;;;;;;;5.07;3.03;;;;;;;23.08;49.39;101043.38;5068546;28;20036;-53
2022/05/12 09:55:38;;;;;;;5.47;3.63;;;;;;;23.09;49.23;101036.22;5069145;28;20430;-48
2022/05/12 09:58:33;;;;;;;6.10;3.78;;;;;;;23.08;49.04;101030.09;5067840;28;20103;-51
2022/05/12 10:01:11;;;;;;;5.75;3.17;;;;;;;23.08;48.97;101031.94;5069456;28;20123;-51
2022/05/12 10:09:27;;;;;;;4.63;3.03;;;;;;;23.07;49.21;101023.16;5068958;28;20038;-56
2022/05/12 10:12:19;;;;;;;4.32;2.75;;;;;;;23.07;49.25;101023.16;5068333;28;20071;-53
2022/05/12 10:14:57;;;;;;;3.97;2.70;;;;;;;23.05;49.33;101024.38;5063889;28;20040;-51
2022/05/12 10:17:23;;;;;;;3.42;2.45;;;;;;;23.07;49.65;101030.31;5067984;28;20035;-50
2022/05/12 10:19:49;;;;;;;5.38;3.05;;;;;;;23.07;49.49;101024.97;5068778;28;20037;-48
2022/05/12 10:22:40;;;;;;;4.82;3.50;;;;;;;23.06;49.43;101029.47;5068750;28;20094;-50
2022/05/12 10:25:05;;;;;;;5.55;2.85;;;;;;;23.08;49.65;101026.63;5061425;28;20067;-49
2022/05/12 10:27:37;;;;;;;4.68;3.03;;;;;;;23.08;49.63;101022.13;5063527;28;20071;-51
2022/05/12 10:30:21;;;;;;;5.43;3.03;;;;;;;23.10;49.52;101016.59;5068474;28;20478;-55
2022/05/12 10:33:14;;;;;;;4.97;2.63;;;;;;;23.11;49.29;101026.19;5067567;28;20372;-50
2022/05/12 10:36:22;;;;;;;5.25;2.63;;;;;;;23.12;49.54;101022.50;5068976;28;20108;-52
2022/05/12 10:39:07;;;;;;;4.88;2.63;;;;;;;23.11;49.41;101026.19;5055776;28;20151;-50
2022/05/12 10:41:46;;;;;;;4.40;3.05;;;;;;;23.13;49.31;101027.59;5067236;28;20706;-50
2022/05/12 10:45:05;;;;;;;4.40;2.30;;;;;;;23.13;49.75;101019.63;5068129;28;20167;-53
2022/05/12 10:47:46;;;;;;;6.28;2.50;;;;;;;23.16;49.33;101011.22;4965904;28;20031;-55
2022/05/12 10:50:23;;;;;;;4.60;2.83;;;;;;;23.18;49.25;101011.00;4966693;28;20038;-52
2022/05/12 10:53:22;;;;;;;3.70;2.03;;;;;;;23.20;49.44;101013.44;4965754;28;20055;-54
2022/05/12 10:56:16;;;;;;;5.05;2.88;;;;;;;23.19;49.71;101007.31;4966368;28;20043;-52
2022/05/12 10:58:55;;;;;;;5.45;2.38;;;;;;;23.16;49.73;100997.91;4961825;28;20073;-54
2022/05/12 11:01:22;;;;;;;5.85;3.10;;;;;;;23.18;49.71;100995.03;4965560;28;20038;-52
2022/05/12 11:04:21;;;;;;;4.90;3.15;;;;;;;23.18;49.75;101000.34;4965003;28;20039;-48
2022/05/12 11:06:54;;;;;;;3.10;2.55;;;;;;;23.20;49.54;101000.16;4959375;28;20043;-55
2022/05/12 11:09:41;;;;;;;3.58;2.60;;;;;;;23.20;49.66;101002.81;4976154;28;20534;-49
2022/05/12 11:12:29;;;;;;;6.32;2.97;;;;;;;23.17;49.27;100993.41;4963592;28;20050;-55
2022/05/12 11:15:09;;;;;;;5.90;3.10;;;;;;;23.17;49.72;100998.72;4965764;28;20081;-52
2022/05/12 11:17:52;;;;;;;2.53;2.30;;;;;;;23.19;49.70;100999.34;4965040;28;20082;-58
2022/05/12 11:20:33;;;;;;;4.18;2.30;;;;;;;23.20;49.74;100986.84;4976052;28;20620;-54
2022/05/12 11:23:12;;;;;;;4.90;2.58;;;;;;;23.20;49.71;100990.34;5067599;28;20123;-53
2022/05/12 11:25:44;;;;;;;13.32;3.90;;;;;;;23.21;49.34;100983.16;5066725;28;20060;-60
2022/05/12 11:31:21;;;;;;;5.22;2.17;;;;;;;23.21;49.07;100986.63;5066816;28;20067;-46
2022/05/12 11:34:01;;;;;;;8.88;2.80;;;;;;;23.23;49.38;100995.22;5065448;28;20029;-43
2022/05/12 11:36:38;;;;;;;5.43;2.78;;;;;;;23.28;49.26;100994.56;5063632;28;20463;-45
2022/05/12 11:39:51;;;;;;;8.85;2.97;;;;;;;23.26;49.44;100981.50;5056028;28;20032;-40
2022/05/12 11:45:43;;;;;;;5.55;2.92;;;;;;;23.33;49.91;100981.47;5066883;28;20505;-48
2022/05/12 11:48:24;;;;;;;7.03;3.53;;;;;;;23.34;50.53;100980.44;5067642;28;20420;-42
2022/05/12 11:51:26;;;;;;;5.13;3.35;;;;;;;23.35;50.64;100990.84;5048908;28;20036;-46
2022/05/12 13:08:21;;;;;;;5.95;3.38;;;;;;;23.52;52.53;100977.03;4951367;28;20062;-64
2022/05/12 13:10:49;;;;;;;4.57;3.25;;;;;;;23.55;52.15;100976.63;4962252;28;20145;-63
2022/05/12 13:13:15;;;;;;;3.40;2.70;;;;;;;23.56;52.09;100970.28;4971456;28;20113;-70
2022/05/12 13:15:45;;;;;;;9.73;3.08;;;;;;;23.62;52.50;100966.75;4972833;28;20121;-68
2022/05/12 13:18:19;;;;;;;7.78;4.07;;;;;;;23.66;52.67;100967.91;4956273;28;20178;-67